Time;durP1;ratioP1;P1;durP2;ratioP2;P2;SDS_P1;SDS_P2;PMS_P1;PMS_P2;Temp;Humidity;BMP_temperature;BMP_pressure;BME280_temperature;BME280_humidity;BME280_pressure;Samples;Min_cycle;Max_cycle;Signal;HPM_P1;HPM_P2
2024/02/06 00:00:33;;;;;;;12.73;5.43;;;;;;;;;;6133330;28;20107;-79
2024/02/06 00:03:35;;;;;;;17.77;6.05;;;;;;;;;;6131546;28;20055;-78
2024/02/06 00:06:37;;;;;;;24.33;5.80;;;;;;;;;;6158259;28;20086;-78
2024/02/06 00:09:39;;;;;;;17.48;5.53;;;;;;;;;;6133691;28;20149;-78
2024/02/06 00:12:40;;;;;;;15.20;6.13;;;;;;;;;;6133106;28;20095;-79
2024/02/06 00:15:43;;;;;;;13.13;5.38;;;;;;;;;;6135739;28;20090;-79
2024/02/06 00:18:46;;;;;;;17.23;5.15;;;;;;;;;;6127561;28;20477;-79
2024/02/06 00:21:48;;;;;;;18.63;5.00;;;;;;;;;;6134455;28;20051;-78
2024/02/06 00:24:50;;;;;;;14.23;6.22;;;;;;;;;;6150534;28;20101;-78
2024/02/06 00:27:52;;;;;;;11.48;4.38;;;;;;;;;;6137413;28;20110;-78
2024/02/06 00:30:53;;;;;;;16.92;5.65;;;;;;;;;;6152999;28;20047;-78
2024/02/06 00:33:55;;;;;;;14.27;5.55;;;;;;;;;;6150038;28;20661;-78
2024/02/06 00:36:57;;;;;;;18.42;5.72;;;;;;;;;;6152562;28;20847;-78
2024/02/06 00:39:59;;;;;;;14.23;5.07;;;;;;;;;;6138526;28;20499;-79
2024/02/06 00:43:02;;;;;;;12.80;5.32;;;;;;;;;;6152189;28;20051;-79
2024/02/06 00:46:04;;;;;;;;;;;;;;;;;;6154716;28;20469;-78
2024/02/06 00:49:06;;;;;;;11.25;4.55;;;;;;;;;;6122219;28;19922;-79
2024/02/06 00:52:09;;;;;;;11.80;4.85;;;;;;;;;;6137960;28;20051;-78
2024/02/06 00:55:12;;;;;;;14.00;5.22;;;;;;;;;;6137508;28;20126;-78
2024/02/06 00:58:14;;;;;;;8.55;4.18;;;;;;;;;;6149330;28;20051;-79
2024/02/06 01:01:16;;;;;;;13.75;5.43;;;;;;;;;;6154573;28;20113;-78
2024/02/06 01:04:18;;;;;;;12.85;4.40;;;;;;;;;;6134928;28;20424;-78
2024/02/06 01:07:20;;;;;;;8.63;3.53;;;;;;;;;;6146277;28;20051;-78
2024/02/06 01:10:22;;;;;;;13.93;4.68;;;;;;;;;;6131346;28;20035;-78
2024/02/06 01:13:24;;;;;;;10.50;4.47;;;;;;;;;;6138688;28;20051;-79
2024/02/06 01:16:25;;;;;;;14.77;4.50;;;;;;;;;;6134280;28;20407;-78
2024/02/06 01:19:27;;;;;;;11.20;4.30;;;;;;;;;;6129210;28;20039;-79
2024/02/06 01:22:29;;;;;;;13.15;4.68;;;;;;;;;;6135035;28;20074;-78
2024/02/06 01:25:31;;;;;;;13.48;4.50;;;;;;;;;;6134494;28;20400;-79
2024/02/06 01:28:33;;;;;;;12.98;4.80;;;;;;;;;;6138800;28;20057;-79
2024/02/06 01:31:34;;;;;;;9.63;4.05;;;;;;;;;;6138641;28;20047;-79
2024/02/06 01:34:36;;;;;;;9.18;4.30;;;;;;;;;;6134357;28;20043;-79
2024/02/06 01:37:38;;;;;;;8.25;4.30;;;;;;;;;;6128471;28;20062;-79
2024/02/06 01:40:41;;;;;;;11.15;4.63;;;;;;;;;;6148468;28;20186;-79
2024/02/06 01:43:43;;;;;;;10.35;4.03;;;;;;;;;;6135561;28;20058;-78
2024/02/06 01:46:45;;;;;;;10.73;5.15;;;;;;;;;;6137645;28;20178;-79
2024/02/06 01:49:47;;;;;;;11.85;4.05;;;;;;;;;;6149380;28;20146;-78
2024/02/06 01:52:51;;;;;;;9.57;4.00;;;;;;;;;;6150006;28;20051;-78
2024/02/06 01:55:53;;;;;;;10.15;3.63;;;;;;;;;;6134307;28;20588;-79
2024/02/06 01:58:56;;;;;;;12.82;3.80;;;;;;;;;;6119855;28;20113;-79
2024/02/06 02:01:57;;;;;;;9.50;3.30;;;;;;;;;;6138206;28;20844;-78
2024/02/06 02:04:59;;;;;;;9.00;3.75;;;;;;;;;;6133672;28;20089;-78
2024/02/06 02:08:01;;;;;;;10.73;4.07;;;;;;;;;;6125654;28;20581;-79
2024/02/06 02:11:04;;;;;;;9.30;3.60;;;;;;;;;;6133736;28;20047;-79
2024/02/06 02:14:06;;;;;;;10.05;4.28;;;;;;;;;;6144025;28;20049;-77
2024/02/06 02:17:08;;;;;;;9.40;3.67;;;;;;;;;;6133095;28;20055;-79
2024/02/06 02:20:10;;;;;;;11.02;4.15;;;;;;;;;;6133546;28;20062;-78
2024/02/06 02:23:12;;;;;;;13.95;4.38;;;;;;;;;;6134874;28;20077;-79
2024/02/06 02:26:26;;;;;;;10.73;3.65;;;;;;;;;;6148968;28;20134;-78
2024/02/06 02:29:30;;;;;;;10.40;3.70;;;;;;;;;;6134412;28;20051;-79
2024/02/06 02:32:33;;;;;;;13.20;4.32;;;;;;;;;;6136486;28;20086;-79
2024/02/06 02:35:35;;;;;;;14.55;3.97;;;;;;;;;;6131679;28;20047;-79
2024/02/06 02:38:38;;;;;;;10.57;4.25;;;;;;;;;;6113236;28;20051;-78
2024/02/06 02:41:40;;;;;;;13.40;4.22;;;;;;;;;;6129200;28;20424;-78
2024/02/06 02:44:41;;;;;;;13.85;4.18;;;;;;;;;;6135324;28;20083;-79
2024/02/06 02:47:45;;;;;;;11.07;4.43;;;;;;;;;;6134901;28;20113;-79
2024/02/06 02:50:47;;;;;;;9.95;4.10;;;;;;;;;;6134465;28;20043;-78
2024/02/06 02:53:49;;;;;;;7.78;3.92;;;;;;;;;;6150833;28;20043;-79
2024/02/06 02:56:50;;;;;;;11.48;4.18;;;;;;;;;;6126922;28;20134;-79
2024/02/06 02:59:52;;;;;;;13.30;4.18;;;;;;;;;;6136676;28;20313;-79
2024/02/06 03:02:54;;;;;;;14.05;4.13;;;;;;;;;;6136317;28;20118;-77
2024/02/06 03:05:56;;;;;;;10.35;3.65;;;;;;;;;;6126158;28;20441;-79
2024/02/06 03:08:57;;;;;;;10.90;3.97;;;;;;;;;;6128347;28;20338;-78
2024/02/06 03:12:03;;;;;;;8.20;3.67;;;;;;;;;;6125469;28;20051;-80
2024/02/06 03:15:06;;;;;;;11.88;3.60;;;;;;;;;;6123559;28;20638;-79
2024/02/06 03:18:08;;;;;;;;;;;;;;;;;;6148329;28;20218;-79
2024/02/06 03:21:10;;;;;;;7.63;3.28;;;;;;;;;;6134739;28;19926;-78
2024/02/06 03:24:11;;;;;;;9.30;3.58;;;;;;;;;;6135317;28;20066;-79
2024/02/06 03:27:13;;;;;;;4.53;2.60;;;;;;;;;;6133423;28;20071;-79
2024/02/06 03:30:15;;;;;;;7.25;3.22;;;;;;;;;;6137053;28;20475;-79
2024/02/06 03:33:17;;;;;;;5.10;2.50;;;;;;;;;;6134859;28;20047;-79
2024/02/06 03:36:18;;;;;;;10.18;3.33;;;;;;;;;;6134082;28;20063;-79
2024/02/06 03:39:21;;;;;;;6.32;3.30;;;;;;;;;;6137073;28;20116;-78
2024/02/06 03:42:23;;;;;;;8.30;3.05;;;;;;;;;;6119964;28;20054;-79
2024/02/06 03:45:24;;;;;;;7.20;2.92;;;;;;;;;;6137549;28;20039;-79
2024/02/06 03:48:26;;;;;;;6.45;2.85;;;;;;;;;;6152208;28;20043;-78
2024/02/06 03:51:28;;;;;;;5.40;2.95;;;;;;;;;;6132743;28;20071;-78
2024/02/06 03:54:30;;;;;;;5.93;2.63;;;;;;;;;;6136192;28;20047;-78
2024/02/06 03:57:32;;;;;;;5.93;2.47;;;;;;;;;;6130508;28;20102;-79
2024/02/06 04:00:34;;;;;;;6.55;2.78;;;;;;;;;;6135586;28;20940;-79
2024/02/06 04:03:36;;;;;;;5.85;2.40;;;;;;;;;;6125898;28;20425;-78
2024/02/06 04:06:38;;;;;;;10.27;2.90;;;;;;;;;;6144881;28;20059;-78
2024/02/06 04:09:40;;;;;;;6.15;2.63;;;;;;;;;;6130527;28;20522;-78
2024/02/06 04:12:43;;;;;;;6.93;2.17;;;;;;;;;;6127975;28;20058;-78
2024/02/06 04:15:45;;;;;;;7.40;2.60;;;;;;;;;;6128672;28;20066;-78
2024/02/06 04:18:46;;;;;;;3.78;2.40;;;;;;;;;;6139896;28;20047;-79
2024/02/06 04:21:48;;;;;;;6.53;2.67;;;;;;;;;;6144818;28;20090;-78
2024/02/06 04:24:50;;;;;;;6.20;2.45;;;;;;;;;;6143175;28;21274;-79
2024/02/06 04:27:52;;;;;;;4.32;2.10;;;;;;;;;;6134408;28;20044;-79
2024/02/06 04:30:53;;;;;;;4.70;2.00;;;;;;;;;;6137926;28;20051;-78
2024/02/06 04:33:55;;;;;;;4.82;2.47;;;;;;;;;;6135706;28;20043;-79
2024/02/06 04:36:57;;;;;;;5.03;2.38;;;;;;;;;;6126268;28;20512;-78
2024/02/06 04:39:59;;;;;;;6.20;2.40;;;;;;;;;;6131106;28;20055;-78
2024/02/06 04:43:01;;;;;;;4.88;2.10;;;;;;;;;;6118730;28;20412;-78
2024/02/06 04:46:03;;;;;;;6.65;2.47;;;;;;;;;;6137545;28;20157;-78
2024/02/06 04:49:04;;;;;;;5.22;2.50;;;;;;;;;;6137262;28;20097;-79
2024/02/06 04:52:06;;;;;;;5.00;2.20;;;;;;;;;;6145476;28;20047;-78
2024/02/06 04:55:09;;;;;;;3.55;1.58;;;;;;;;;;6136427;28;20047;-78
2024/02/06 04:58:11;;;;;;;7.03;1.75;;;;;;;;;;6151580;28;20051;-79
2024/02/06 05:01:13;;;;;;;4.85;2.35;;;;;;;;;;6139752;28;20134;-79
2024/02/06 05:04:15;;;;;;;3.83;2.25;;;;;;;;;;6137750;28;20043;-80
2024/02/06 05:07:16;;;;;;;5.97;1.98;;;;;;;;;;6133914;28;20051;-79
2024/02/06 05:10:19;;;;;;;3.45;2.00;;;;;;;;;;6149049;28;20133;-79
2024/02/06 05:13:21;;;;;;;3.60;1.80;;;;;;;;;;6132739;28;20547;-79
2024/02/06 05:16:23;;;;;;;5.72;2.30;;;;;;;;;;6138817;28;20047;-80
2024/02/06 05:19:25;;;;;;;4.50;1.75;;;;;;;;;;6157434;28;20043;-80
2024/02/06 05:22:27;;;;;;;4.78;1.80;;;;;;;;;;6138659;28;20051;-80
2024/02/06 05:25:28;;;;;;;4.65;2.20;;;;;;;;;;6118705;28;20054;-80
2024/02/06 05:28:30;;;;;;;4.82;2.30;;;;;;;;;;6125712;28;20198;-80
2024/02/06 05:31:33;;;;;;;6.57;2.17;;;;;;;;;;6137210;28;20502;-80
2024/02/06 05:34:35;;;;;;;5.90;2.00;;;;;;;;;;6139133;28;20973;-79
2024/02/06 05:37:37;;;;;;;4.43;2.20;;;;;;;;;;6129516;28;20429;-79
2024/02/06 05:40:39;;;;;;;3.72;2.13;;;;;;;;;;6113127;28;20167;-80
2024/02/06 05:43:42;;;;;;;4.20;1.90;;;;;;;;;;6136761;28;20097;-80
2024/02/06 05:46:43;;;;;;;4.05;2.03;;;;;;;;;;6137658;28;20406;-80
2024/02/06 05:49:45;;;;;;;4.40;2.17;;;;;;;;;;6133767;28;20130;-80
2024/02/06 05:52:47;;;;;;;5.05;2.45;;;;;;;;;;6131284;28;20047;-79
2024/02/06 05:55:49;;;;;;;6.25;2.47;;;;;;;;;;6147487;28;20085;-79
2024/02/06 05:58:51;;;;;;;4.32;2.22;;;;;;;;;;6135521;28;20073;-79
2024/02/06 06:01:54;;;;;;;4.72;2.40;;;;;;;;;;6138195;28;20508;-80
2024/02/06 06:04:55;;;;;;;4.88;1.98;;;;;;;;;;6154587;28;20573;-79
2024/02/06 06:07:57;;;;;;;3.30;2.20;;;;;;;;;;6127047;28;20229;-79
2024/02/06 06:10:59;;;;;;;5.97;2.20;;;;;;;;;;6147727;28;20051;-79
2024/02/06 06:14:01;;;;;;;5.25;2.28;;;;;;;;;;6134885;28;20047;-79
2024/02/06 06:17:03;;;;;;;7.53;2.90;;;;;;;;;;6149886;28;20055;-79
2024/02/06 06:20:05;;;;;;;4.97;2.38;;;;;;;;;;6134501;28;20075;-79
2024/02/06 06:23:07;;;;;;;4.70;2.50;;;;;;;;;;6148463;28;20047;-79
2024/02/06 06:26:09;;;;;;;7.47;2.45;;;;;;;;;;6133544;28;20050;-79
2024/02/06 06:29:11;;;;;;;6.13;2.45;;;;;;;;;;6151643;28;20551;-79
2024/02/06 06:32:12;;;;;;;4.07;2.20;;;;;;;;;;6156757;28;20190;-79
2024/02/06 06:35:14;;;;;;;5.75;2.58;;;;;;;;;;6139452;28;20051;-79
2024/02/06 06:38:16;;;;;;;3.90;2.17;;;;;;;;;;6134278;28;20047;-79
2024/02/06 06:41:17;;;;;;;6.63;2.70;;;;;;;;;;6132320;28;20508;-79
2024/02/06 06:44:19;;;;;;;7.55;2.63;;;;;;;;;;6131826;28;20383;-80
2024/02/06 06:47:21;;;;;;;5.57;2.70;;;;;;;;;;6137470;28;20188;-80
2024/02/06 06:50:23;;;;;;;5.00;2.75;;;;;;;;;;6134981;28;20520;-81
2024/02/06 06:53:25;;;;;;;7.43;2.50;;;;;;;;;;6132630;28;20094;-79
2024/02/06 06:56:26;;;;;;;7.45;3.10;;;;;;;;;;6149008;28;20047;-80
2024/02/06 06:59:28;;;;;;;9.68;2.95;;;;;;;;;;6133582;28;20054;-80
2024/02/06 07:02:30;;;;;;;7.50;2.90;;;;;;;;;;6134990;28;20133;-80
2024/02/06 07:05:32;;;;;;;6.35;3.28;;;;;;;;;;6196078;23;20047;-85
2024/02/06 07:08:34;;;;;;;8.97;2.90;;;;;;;;;;6149242;28;20445;-85
2024/02/06 07:11:36;;;;;;;6.63;3.63;;;;;;;;;;6157591;28;20417;-86
2024/02/06 07:14:38;;;;;;;5.45;2.38;;;;;;;;;;6172208;28;20069;-86
2024/02/06 07:17:41;;;;;;;4.45;2.78;;;;;;;;;;6181581;28;20042;-85
2024/02/06 07:20:45;;;;;;;8.15;3.38;;;;;;;;;;6157591;28;20046;-86
2024/02/06 07:23:46;;;;;;;8.95;3.00;;;;;;;;;;6182136;28;20050;-88
2024/02/06 07:26:48;;;;;;;6.20;2.60;;;;;;;;;;6163283;28;20148;-87
2024/02/06 07:29:50;;;;;;;5.80;2.78;;;;;;;;;;6155366;28;20054;-87
2024/02/06 07:32:52;;;;;;;9.25;2.85;;;;;;;;;;6168647;28;20054;-87
2024/02/06 07:35:54;;;;;;;4.82;2.67;;;;;;;;;;6169978;28;20050;-88
2024/02/06 07:38:55;;;;;;;3.90;2.40;;;;;;;;;;6181750;28;20050;-87
2024/02/06 07:41:57;;;;;;;5.80;3.10;;;;;;;;;;6183629;28;20074;-85
2024/02/06 07:44:59;;;;;;;7.32;2.13;;;;;;;;;;6181779;28;20050;-88
2024/02/06 07:48:01;;;;;;;6.22;2.95;;;;;;;;;;6177901;28;20047;-87
2024/02/06 07:51:03;;;;;;;5.07;2.42;;;;;;;;;;6180176;28;20054;-87
2024/02/06 07:54:06;;;;;;;4.50;2.45;;;;;;;;;;6181006;28;20170;-87
2024/02/06 07:57:08;;;;;;;4.72;2.53;;;;;;;;;;6141275;28;20129;-88
2024/02/06 08:00:10;;;;;;;6.82;2.65;;;;;;;;;;6160659;28;20106;-87
2024/02/06 08:03:12;;;;;;;6.77;2.33;;;;;;;;;;6159698;28;20317;-87
2024/02/06 08:06:14;;;;;;;6.10;3.03;;;;;;;;;;6162623;28;20169;-87
2024/02/06 08:09:18;;;;;;;4.70;2.65;;;;;;;;;;6162482;28;20094;-87
2024/02/06 08:12:20;;;;;;;5.18;2.30;;;;;;;;;;6146261;28;20054;-87
2024/02/06 08:15:22;;;;;;;4.85;2.53;;;;;;;;;;6184187;28;20058;-85
2024/02/06 08:18:24;;;;;;;6.85;2.15;;;;;;;;;;6164312;28;20038;-87
2024/02/06 08:21:26;;;;;;;4.10;2.05;;;;;;;;;;6166637;28;20047;-87
2024/02/06 08:24:28;;;;;;;5.55;2.53;;;;;;;;;;6177202;28;20398;-86
2024/02/06 08:27:31;;;;;;;5.40;2.08;;;;;;;;;;6177654;28;20051;-87
2024/02/06 08:30:32;;;;;;;4.78;2.13;;;;;;;;;;6166201;28;20062;-87
2024/02/06 08:33:34;;;;;;;5.95;2.42;;;;;;;;;;6185457;28;20051;-86
2024/02/06 08:36:36;;;;;;;6.07;2.65;;;;;;;;;;6160564;28;20050;-87
2024/02/06 08:39:38;;;;;;;4.90;2.47;;;;;;;;;;6165295;28;20065;-88
2024/02/06 08:42:40;;;;;;;5.35;2.22;;;;;;;;;;6177394;28;20409;-87
2024/02/06 08:45:42;;;;;;;5.57;2.63;;;;;;;;;;6178760;28;20043;-87
2024/02/06 08:48:43;;;;;;;4.07;2.30;;;;;;;;;;6178609;28;20065;-86
2024/02/06 08:51:45;;;;;;;4.15;2.53;;;;;;;;;;6183490;28;20059;-87
2024/02/06 08:54:47;;;;;;;4.78;2.47;;;;;;;;;;6175593;28;20421;-85
2024/02/06 08:57:49;;;;;;;4.63;2.20;;;;;;;;;;6163516;28;20146;-86
2024/02/06 09:00:52;;;;;;;6.15;2.42;;;;;;;;;;6182630;28;20100;-86
2024/02/06 09:03:54;;;;;;;6.13;2.70;;;;;;;;;;6164378;28;20603;-86
2024/02/06 09:07:06;;;;;;;7.40;2.95;;;;;;;;;;6190604;28;20035;-87
2024/02/06 09:10:08;;;;;;;6.53;3.38;;;;;;;;;;6190478;28;20046;-85
2024/02/06 09:13:09;;;;;;;6.28;2.47;;;;;;;;;;6181574;28;20058;-84
2024/02/06 09:16:11;;;;;;;4.68;2.33;;;;;;;;;;6179343;28;20034;-86
2024/02/06 09:19:13;;;;;;;6.20;2.95;;;;;;;;;;6178702;28;20055;-87
2024/02/06 09:22:15;;;;;;;7.88;3.10;;;;;;;;;;6165815;28;20061;-87
2024/02/06 09:25:17;;;;;;;8.57;2.63;;;;;;;;;;6163026;28;20043;-86
2024/02/06 09:28:18;;;;;;;6.15;2.97;;;;;;;;;;6150521;28;20046;-87
2024/02/06 09:31:21;;;;;;;7.70;2.75;;;;;;;;;;6172585;28;21353;-88
2024/02/06 09:34:24;;;;;;;;;;;;;;;;;;6201851;28;20103;-88
2024/02/06 09:37:26;;;;;;;6.25;2.50;;;;;;;;;;6202818;28;20323;-88
2024/02/06 09:40:31;;;;;;;8.43;2.60;;;;;;;;;;6165559;28;20504;-88
2024/02/06 09:43:34;;;;;;;8.85;3.03;;;;;;;;;;6162948;28;20046;-88
2024/02/06 09:46:36;;;;;;;8.00;2.60;;;;;;;;;;6173154;28;20101;-85
2024/02/06 09:49:38;;;;;;;7.32;3.30;;;;;;;;;;6146785;28;20120;-86
2024/02/06 09:52:42;;;;;;;7.65;2.90;;;;;;;;;;6164286;28;20056;-87
2024/02/06 09:55:45;;;;;;;8.32;3.45;;;;;;;;;;6161755;28;20051;-86
2024/02/06 09:58:47;;;;;;;7.38;3.42;;;;;;;;;;6165137;28;20058;-87
2024/02/06 10:01:51;;;;;;;6.15;3.28;;;;;;;;;;6138314;28;20047;-86
2024/02/06 10:04:54;;;;;;;7.90;3.35;;;;;;;;;;6156786;28;20054;-87
2024/02/06 10:07:57;;;;;;;8.05;3.42;;;;;;;;;;6191262;28;20079;-87
2024/02/06 10:11:01;;;;;;;10.95;3.60;;;;;;;;;;6195574;28;20157;-88
2024/02/06 10:14:04;;;;;;;7.03;3.65;;;;;;;;;;6138542;28;20097;-87
2024/02/06 10:17:06;;;;;;;7.05;2.90;;;;;;;;;;6157467;28;20152;-87
2024/02/06 10:20:08;;;;;;;9.30;3.90;;;;;;;;;;6166164;28;20047;-87
2024/02/06 10:23:18;;;;;;;10.90;3.63;;;;;;;;;;6176404;28;20043;-88
2024/02/06 10:26:20;;;;;;;8.50;3.58;;;;;;;;;;6148611;28;20059;-88
2024/02/06 10:29:21;;;;;;;9.60;3.70;;;;;;;;;;6142810;28;20053;-88
2024/02/06 10:32:28;;;;;;;7.53;3.53;;;;;;;;;;6183563;28;20050;-88
2024/02/06 10:35:31;;;;;;;10.48;3.78;;;;;;;;;;6176180;28;20046;-87
2024/02/06 10:38:34;;;;;;;6.93;3.80;;;;;;;;;;6145263;28;20107;-87
2024/02/06 10:41:37;;;;;;;6.53;3.63;;;;;;;;;;6138263;28;20050;-87
2024/02/06 10:44:59;;;;;;;7.37;3.03;;;;;;;;;;6158849;28;20181;-87
2024/02/06 10:48:05;;;;;;;6.35;3.42;;;;;;;;;;6176590;28;20069;-87
2024/02/06 10:51:08;;;;;;;8.07;4.00;;;;;;;;;;6175798;28;20421;-87
2024/02/06 10:54:10;;;;;;;7.95;4.07;;;;;;;;;;6176461;28;20461;-87
2024/02/06 10:57:19;;;;;;;9.32;4.03;;;;;;;;;;6142543;28;20062;-86
2024/02/06 11:00:22;;;;;;;9.48;4.10;;;;;;;;;;6159488;28;20070;-87
2024/02/06 11:03:24;;;;;;;8.30;4.45;;;;;;;;;;6141997;28;20105;-87
2024/02/06 11:06:37;;;;;;;7.35;3.78;;;;;;;;;;6178300;28;20429;-88
2024/02/06 11:09:41;;;;;;;10.90;3.53;;;;;;;;;;6161229;28;20058;-87
2024/02/06 11:12:46;;;;;;;10.45;3.72;;;;;;;;;;6176819;28;20372;-86
2024/02/06 11:15:51;;;;;;;7.22;3.53;;;;;;;;;;6183195;28;20497;-88
2024/02/06 11:19:05;;;;;;;8.75;4.32;;;;;;;;;;6181863;28;20039;-87
2024/02/06 11:22:15;;;;;;;9.15;4.40;;;;;;;;;;6156145;28;20162;-86
2024/02/06 11:25:18;;;;;;;9.30;4.10;;;;;;;;;;6147647;28;20062;-89
2024/02/06 11:28:20;;;;;;;9.32;4.40;;;;;;;;;;6147029;28;20047;-88
2024/02/06 11:31:23;;;;;;;9.75;4.75;;;;;;;;;;6177480;28;20051;-89
2024/02/06 11:34:25;;;;;;;10.20;5.03;;;;;;;;;;6157500;28;20062;-89
2024/02/06 11:37:32;;;;;;;10.80;5.38;;;;;;;;;;6181981;28;20082;-89
2024/02/06 11:40:35;;;;;;;8.90;4.55;;;;;;;;;;6159951;28;20047;-86
2024/02/06 11:43:37;;;;;;;11.07;5.00;;;;;;;;;;6172748;28;20053;-87
2024/02/06 11:46:44;;;;;;;12.57;5.20;;;;;;;;;;6142623;28;20054;-86
2024/02/06 11:49:47;;;;;;;10.63;5.22;;;;;;;;;;6181000;28;20575;-89
2024/02/06 11:52:49;;;;;;;10.85;5.88;;;;;;;;;;6158529;28;20043;-89
2024/02/06 11:55:54;;;;;;;10.30;5.68;;;;;;;;;;6161620;28;20133;-89
2024/02/06 11:58:56;;;;;;;13.85;6.13;;;;;;;;;;6161621;28;20392;-89
2024/02/06 12:02:10;;;;;;;11.80;5.87;;;;;;;;;;6181329;28;20051;-89
2024/02/06 12:05:12;;;;;;;;;;;;;;;;;;6220254;28;20069;-91
2024/02/06 12:08:19;;;;;;;12.93;6.05;;;;;;;;;;6172534;28;20329;-88
2024/02/06 12:11:25;;;;;;;12.40;5.38;;;;;;;;;;6149974;28;20050;-90
2024/02/06 12:14:28;;;;;;;12.57;6.07;;;;;;;;;;6162356;28;20050;-86
2024/02/06 12:17:30;;;;;;;13.15;6.05;;;;;;;;;;6149068;28;20046;-88
2024/02/06 12:20:33;;;;;;;13.23;6.07;;;;;;;;;;6164698;28;20047;-88
2024/02/06 12:23:36;;;;;;;16.90;6.63;;;;;;;;;;6167497;28;20043;-88
2024/02/06 12:26:38;;;;;;;12.60;6.20;;;;;;;;;;6165314;28;20046;-89
2024/02/06 12:29:41;;;;;;;14.70;5.63;;;;;;;;;;6183741;28;20047;-89
2024/02/06 12:32:44;;;;;;;15.10;6.32;;;;;;;;;;6167753;28;20051;-88
2024/02/06 12:35:46;;;;;;;15.75;6.40;;;;;;;;;;6171519;28;20047;-88
2024/02/06 12:38:55;;;;;;;13.93;5.82;;;;;;;;;;6181959;28;20050;-88
2024/02/06 12:41:59;;;;;;;14.45;5.80;;;;;;;;;;6177825;28;20390;-88
2024/02/06 12:45:04;;;;;;;12.10;5.38;;;;;;;;;;6167430;28;20047;-88
2024/02/06 12:48:07;;;;;;;11.68;5.57;;;;;;;;;;6185359;28;20057;-88
2024/02/06 12:51:09;;;;;;;14.77;6.45;;;;;;;;;;6152838;28;20062;-89
2024/02/06 12:54:11;;;;;;;14.50;5.93;;;;;;;;;;6199704;28;20050;-89
2024/02/06 12:57:16;;;;;;;16.80;5.55;;;;;;;;;;6213398;28;20034;-90
2024/02/06 13:00:18;;;;;;;12.95;5.63;;;;;;;;;;6181873;28;20132;-90
2024/02/06 13:03:20;;;;;;;19.98;5.63;;;;;;;;;;6174481;28;20050;-90
2024/02/06 13:06:22;;;;;;;11.35;5.82;;;;;;;;;;6169112;28;20524;-89
2024/02/06 13:09:32;;;;;;;15.40;5.93;;;;;;;;;;6164648;28;20046;-89
2024/02/06 13:15:46;;;;;;;12.70;5.97;;;;;;;;;;6152921;28;20039;-80
2024/02/06 13:18:58;;;;;;;13.70;6.18;;;;;;;;;;6139651;28;20591;-80
2024/02/06 13:22:01;;;;;;;15.15;5.68;;;;;;;;;;6158308;28;20053;-80
2024/02/06 13:25:04;;;;;;;12.60;5.35;;;;;;;;;;6159806;28;20130;-80
2024/02/06 13:28:06;;;;;;;12.68;5.30;;;;;;;;;;6160381;28;20546;-81
2024/02/06 13:31:08;;;;;;;12.77;5.53;;;;;;;;;;6145011;28;20042;-80
2024/02/06 13:34:17;;;;;;;11.57;5.07;;;;;;;;;;6158370;28;20057;-81
2024/02/06 13:37:19;;;;;;;16.58;5.07;;;;;;;;;;6144162;28;20055;-80
2024/02/06 13:40:21;;;;;;;12.82;5.80;;;;;;;;;;6143836;28;20062;-80
2024/02/06 13:43:23;;;;;;;11.93;4.70;;;;;;;;;;6159599;28;20065;-81
2024/02/06 13:46:25;;;;;;;11.60;4.93;;;;;;;;;;6134327;28;20043;-81
2024/02/06 13:49:27;;;;;;;11.18;5.07;;;;;;;;;;6158884;28;20058;-81
2024/02/06 13:52:29;;;;;;;12.90;5.18;;;;;;;;;;6144816;28;20049;-80
2024/02/06 13:55:32;;;;;;;13.45;5.38;;;;;;;;;;6157738;28;20078;-81
2024/02/06 13:58:34;;;;;;;14.43;5.10;;;;;;;;;;6164204;28;20039;-80
2024/02/06 14:01:36;;;;;;;12.93;4.78;;;;;;;;;;6147448;28;20050;-80
2024/02/06 14:04:39;;;;;;;10.75;5.20;;;;;;;;;;6146117;28;20107;-80
2024/02/06 14:07:41;;;;;;;10.80;4.95;;;;;;;;;;6143672;28;20609;-80
2024/02/06 14:10:44;;;;;;;10.73;4.78;;;;;;;;;;6156416;28;20061;-80
2024/02/06 14:13:45;;;;;;;10.05;4.78;;;;;;;;;;6153149;28;20116;-81
2024/02/06 14:16:47;;;;;;;9.40;4.40;;;;;;;;;;6149518;28;20523;-82
2024/02/06 14:19:49;;;;;;;11.80;4.72;;;;;;;;;;6161885;28;20097;-79
2024/02/06 14:22:52;;;;;;;10.07;4.80;;;;;;;;;;6159771;28;20054;-82
2024/02/06 14:25:54;;;;;;;12.03;4.43;;;;;;;;;;6142943;28;20137;-81
2024/02/06 14:28:56;;;;;;;11.75;3.95;;;;;;;;;;6145115;28;20105;-80
2024/02/06 14:31:58;;;;;;;8.82;4.38;;;;;;;;;;6162382;28;20046;-82
2024/02/06 14:34:59;;;;;;;10.10;4.47;;;;;;;;;;6158497;28;20050;-80
2024/02/06 14:38:03;;;;;;;8.75;4.28;;;;;;;;;;6146604;28;20046;-80
2024/02/06 14:41:05;;;;;;;8.68;4.13;;;;;;;;;;6157099;28;20042;-80
2024/02/06 14:44:06;;;;;;;9.48;4.30;;;;;;;;;;6159775;28;20071;-82
2024/02/06 14:47:08;;;;;;;11.63;4.95;;;;;;;;;;6129840;28;20780;-81
2024/02/06 14:50:10;;;;;;;9.68;3.97;;;;;;;;;;6160946;28;20059;-81
2024/02/06 14:53:12;;;;;;;8.32;4.00;;;;;;;;;;6152631;28;20277;-81
2024/02/06 14:56:13;;;;;;;8.63;4.40;;;;;;;;;;6161016;28;20057;-80
2024/02/06 14:59:16;;;;;;;6.78;3.72;;;;;;;;;;6159053;28;20047;-80
2024/02/06 15:02:18;;;;;;;12.43;4.65;;;;;;;;;;6144394;28;20054;-80
2024/02/06 15:05:20;;;;;;;9.63;3.88;;;;;;;;;;6133030;28;20153;-82
2024/02/06 15:08:29;;;;;;;11.23;4.43;;;;;;;;;;6165333;28;20050;-80
2024/02/06 15:11:31;;;;;;;14.10;4.65;;;;;;;;;;6161444;28;20053;-80
2024/02/06 15:14:33;;;;;;;12.05;4.35;;;;;;;;;;6152266;28;20051;-81
2024/02/06 15:17:35;;;;;;;10.02;4.28;;;;;;;;;;6125130;28;20074;-80
2024/02/06 15:20:37;;;;;;;11.15;3.95;;;;;;;;;;6150370;28;20049;-82
2024/02/06 15:23:42;;;;;;;10.10;4.57;;;;;;;;;;6136953;28;20124;-81
2024/02/06 15:26:43;;;;;;;15.75;4.30;;;;;;;;;;6152826;28;20043;-81
2024/02/06 15:29:45;;;;;;;8.52;4.03;;;;;;;;;;6151950;28;20058;-83
2024/02/06 15:32:47;;;;;;;10.15;4.30;;;;;;;;;;6136820;28;20054;-83
2024/02/06 15:35:49;;;;;;;9.10;3.75;;;;;;;;;;6150040;28;20458;-83
2024/02/06 15:38:53;;;;;;;8.90;4.38;;;;;;;;;;6134339;28;20058;-82
2024/02/06 15:41:57;;;;;;;12.00;4.63;;;;;;;;;;6137636;28;20058;-81
2024/02/06 15:44:59;;;;;;;19.13;5.10;;;;;;;;;;6133939;28;20539;-82
2024/02/06 15:48:01;;;;;;;9.82;3.53;;;;;;;;;;6147749;28;20564;-81
2024/02/06 15:51:04;;;;;;;11.13;4.13;;;;;;;;;;6151036;28;20130;-80
2024/02/06 15:54:08;;;;;;;9.57;3.97;;;;;;;;;;6153762;28;20153;-80
2024/02/06 15:57:10;;;;;;;11.43;4.38;;;;;;;;;;6136470;28;20498;-81
2024/02/06 16:00:12;;;;;;;11.40;4.15;;;;;;;;;;6141243;28;20053;-79
2024/02/06 16:03:14;;;;;;;11.30;4.38;;;;;;;;;;6141620;28;20043;-81
2024/02/06 16:06:15;;;;;;;6.45;3.75;;;;;;;;;;6139186;28;20046;-81
2024/02/06 16:09:17;;;;;;;9.88;3.97;;;;;;;;;;6159293;28;20046;-81
2024/02/06 16:12:20;;;;;;;8.63;4.07;;;;;;;;;;6132894;28;20050;-81
2024/02/06 16:15:23;;;;;;;10.68;4.55;;;;;;;;;;6158790;28;20061;-80
2024/02/06 16:18:25;;;;;;;8.75;4.68;;;;;;;;;;6145245;28;20054;-81
2024/02/06 16:21:27;;;;;;;9.85;4.95;;;;;;;;;;6149773;28;20042;-80
2024/02/06 16:24:29;;;;;;;10.60;4.57;;;;;;;;;;6151988;28;20505;-81
2024/02/06 16:27:31;;;;;;;9.18;4.03;;;;;;;;;;6130762;28;20263;-82
2024/02/06 16:30:33;;;;;;;9.77;5.20;;;;;;;;;;6135957;28;20054;-81
2024/02/06 16:33:35;;;;;;;11.00;4.57;;;;;;;;;;6151519;28;20498;-81
2024/02/06 16:36:37;;;;;;;8.93;3.97;;;;;;;;;;6150423;28;20536;-81
2024/02/06 16:39:39;;;;;;;12.82;4.20;;;;;;;;;;6136372;28;20059;-81
2024/02/06 16:42:41;;;;;;;11.85;5.22;;;;;;;;;;6149411;28;20061;-80
2024/02/06 16:45:46;;;;;;;11.02;4.72;;;;;;;;;;6148157;28;20054;-81
2024/02/06 16:48:49;;;;;;;7.30;4.05;;;;;;;;;;6145956;28;20058;-81
2024/02/06 16:51:50;;;;;;;10.25;5.10;;;;;;;;;;6151819;28;20112;-81
2024/02/06 16:54:52;;;;;;;9.38;3.88;;;;;;;;;;6135895;28;20417;-82
2024/02/06 16:57:54;;;;;;;8.43;4.60;;;;;;;;;;6137413;28;20518;-81
2024/02/06 17:00:56;;;;;;;10.82;4.32;;;;;;;;;;6133295;28;20054;-82
2024/02/06 17:03:58;;;;;;;10.65;3.95;;;;;;;;;;6150479;28;20449;-80
2024/02/06 17:07:00;;;;;;;10.93;4.07;;;;;;;;;;6135523;28;20047;-81
2024/02/06 17:10:02;;;;;;;7.78;3.60;;;;;;;;;;6137996;28;20051;-81
2024/02/06 17:13:04;;;;;;;6.10;3.20;;;;;;;;;;6131587;28;20077;-82
2024/02/06 17:16:06;;;;;;;6.20;3.40;;;;;;;;;;6152492;28;20049;-80
2024/02/06 17:19:09;;;;;;;8.82;3.25;;;;;;;;;;6128203;28;20051;-79
2024/02/06 17:22:13;;;;;;;7.95;3.67;;;;;;;;;;6157885;28;20137;-80
2024/02/06 17:25:16;;;;;;;7.10;3.65;;;;;;;;;;6162904;28;20399;-80
2024/02/06 17:28:17;;;;;;;8.55;3.20;;;;;;;;;;6142451;28;20059;-80
2024/02/06 17:31:19;;;;;;;10.10;3.35;;;;;;;;;;6162568;28;20050;-79
2024/02/06 17:34:21;;;;;;;5.53;3.38;;;;;;;;;;6155746;28;20050;-80
2024/02/06 17:37:23;;;;;;;8.70;3.15;;;;;;;;;;6158345;28;20237;-81
2024/02/06 17:40:25;;;;;;;6.65;3.47;;;;;;;;;;6138612;28;20043;-81
2024/02/06 17:43:27;;;;;;;9.38;3.45;;;;;;;;;;6158325;28;20485;-79
2024/02/06 17:46:29;;;;;;;8.43;3.15;;;;;;;;;;6153262;28;20047;-80
2024/02/06 17:49:31;;;;;;;6.75;3.88;;;;;;;;;;6135665;28;20369;-81
2024/02/06 17:52:33;;;;;;;8.85;3.55;;;;;;;;;;6134417;28;20046;-79
2024/02/06 17:55:35;;;;;;;8.45;3.97;;;;;;;;;;6154502;28;20050;-80
2024/02/06 17:58:36;;;;;;;8.55;3.65;;;;;;;;;;6157936;28;20130;-80
2024/02/06 18:01:38;;;;;;;10.60;3.90;;;;;;;;;;6155795;28;20054;-79
2024/02/06 18:04:40;;;;;;;8.80;3.35;;;;;;;;;;6159064;28;20054;-79
2024/02/06 18:07:42;;;;;;;8.23;3.40;;;;;;;;;;6158853;28;20047;-79
2024/02/06 18:10:44;;;;;;;10.52;3.47;;;;;;;;;;6155367;28;20528;-80